Flight Track Log - Related Links

Times and Time Zones

All times are in EDT time to prevent confusion due to time zone crossing. See the DAL2057 flight status page for this flight to view local times or setup timezone preferences in your user account.

Time Position Orientation Groundspeed Altitude Reporting Facility
EDT Latitude Longitude Course Direction KTS MPH feet Rate Location/Type
Wed 01:12:36 PM 39.8648 -104.6872 North 89 102 5,700  Level FlightAware ADS-B
Wed 01:13:09 PM 39.8858 -104.6869 North 157 181 5,700 143 Level FlightAware ADS-B
Wed 01:13:18 PM 39.8927 -104.6868 North 190 219 5,800 2,667 Climbing FlightAware ADS-B
Wed 01:13:27 PM 39.8858 -104.6869 North 157 181 6,500 2,483 Climbing FlightAware ADS-B
Wed 01:13:47 PM 39.9172 -104.6847 North 184 212 7,000 1,355 Climbing FlightAware ADS-B
Wed 01:13:58 PM 39.9269 -104.6814 19° North 206 237 7,200 255 Climbing FlightAware ADS-B
Wed 01:14:34 PM 39.9500 -104.6667 56° Northeast 223 257 7,200 724 Level Denver TRACON
Wed 01:14:56 PM 39.9837 -104.6383 North 188 216 7,900 2,167 Climbing FlightAware ADS-B
Wed 01:15:10 PM 40.0003 -104.6262 30° Northeast 268 308 8,500 2,667 Climbing FlightAware ADS-B
Wed 01:15:32 PM 40.0227 -104.6084 31° Northeast 291 335 9,500 1,680 Climbing FlightAware ADS-B
Wed 01:15:35 PM 40.0333 -104.6000 31° Northeast 298 343 9,200 2,154 Descending Denver TRACON
Wed 01:16:11 PM 40.0769 -104.5797 20° North 309 356 10,900 2,633 Climbing Denver Center
Wed 01:17:13 PM 40.1647 -104.5586 10° North 321 369 13,500 2,274 Climbing Denver Center
Wed 01:18:00 PM 40.1995 -104.2617 56° Northeast  Level Estimated
Wed 01:18:15 PM 40.2589 -104.5117 21° North 337 388 15,600  Level Denver Center
Wed 01:19:00 PM 40.2758 -104.1086 56° Northeast  Level Estimated
Wed 01:19:17 PM 40.3581 -104.4561 23° Northeast 397 457 16,100  Level Denver Center
Wed 01:20:19 PM 40.4811 -104.3944 21° North 436 502 17,600 1,887 Climbing Denver Center
Wed 01:21:21 PM 40.5964 -104.3289 23° Northeast 446 513 20,000 1,728 Climbing Denver Center
Wed 01:22:24 PM 40.6914 -104.2289 39° Northeast 453 521 21,200 1,104 Climbing Denver Center
Wed 01:23:26 PM 40.7825 -104.0925 49° Northeast 491 565 22,300 971 Climbing Denver Center
Wed 01:24:40 PM 40.8758 -103.9539 48° Northeast 503 579 23,400 1,015 Climbing Denver Center
Wed 01:25:42 PM 41.0025 -103.7656 48° Northeast 519 597 24,600 1,161 Climbing Denver Center
Wed 01:26:44 PM 41.1125 -103.6031 48° Northeast 530 610 25,800 1,065 Climbing Denver Center
Wed 01:27:46 PM 41.2064 -103.4614 49° Northeast 533 613 26,800 1,016 Climbing Denver Center
Wed 01:28:48 PM 41.3397 -103.3319 36° Northeast 544 626 27,900 919 Climbing Denver Center
Wed 01:29:50 PM 41.4653 -103.2392 29° Northeast 538 619 28,700 968 Climbing Denver Center
Wed 01:30:52 PM 41.6128 -103.1336 28° Northeast 539 620 29,900 1,113 Climbing Denver Center
Wed 01:31:54 PM 41.7394 -103.0431 28° Northeast 539 620 31,000 1,016 Climbing Denver Center
Wed 01:32:56 PM 41.8811 -102.9269 31° Northeast 539 620 32,000 774 Climbing Denver Center
Wed 01:33:58 PM 41.9461 -102.7950 56° Northeast 536 617 32,600 574 Climbing Denver Center
Wed 01:35:12 PM 42.0192 -102.6003 63° Northeast 525 604 33,300 838 Climbing Denver Center
Wed 01:36:14 PM 42.0919 -102.4044 63° Northeast 526 605 34,500 816 Climbing Denver Center
Wed 01:37:17 PM 42.1683 -102.1989 63° Northeast 525 604 35,000 240 Climbing Denver Center
Wed 01:38:19 PM 42.2408 -102.0025 63° Northeast 525 604 35,000  Level Denver Center
Wed 01:39:21 PM 42.3022 -101.8339 64° Northeast 524 603 35,000  Level Denver Center
Wed 01:40:35 PM 42.3736 -101.6392 64° Northeast 519 597 35,000  Level Denver Center
Wed 01:41:37 PM 42.4353 -101.4683 64° Northeast 522 601 35,000  Level Denver Center
Wed 01:42:39 PM 42.5161 -101.2422 64° Northeast 523 602 35,000  Level Denver Center
Wed 01:43:41 PM 42.5753 -101.0728 65° Northeast 523 602 35,000  Level Denver Center
Wed 01:44:43 PM 42.6458 -100.8742 64° Northeast 522 601 35,000  Level Denver Center
Wed 01:45:45 PM 42.7058 -100.7025 65° Northeast 526 605 35,000  Level Denver Center
Wed 01:46:24 PM 42.7431 -100.5969 64° Northeast 523 602 35,000  Level Minneapolis Center
Wed 01:47:26 PM 42.8144 -100.3919 65° Northeast 524 603 35,000  Level Minneapolis Center
Wed 01:48:28 PM 42.8764 -100.2133 65° Northeast 524 603 35,000  Level Minneapolis Center
Wed 01:49:30 PM 42.9367 -100.0378 65° Northeast 521 600 35,000  Level Minneapolis Center
Wed 01:50:32 PM 42.9947 -99.8664 65° Northeast 510 587 35,000  Level Minneapolis Center
Wed 01:51:34 PM 43.0581 -99.6786 65° Northeast 504 580 35,000  Level Minneapolis Center
Wed 01:52:36 PM 43.1219 -99.4872 65° Northeast 504 580 35,000  Level Minneapolis Center
Wed 01:53:38 PM 43.1789 -99.3153 66° East 503 579 35,000  Level Minneapolis Center
Wed 01:54:40 PM 43.2364 -99.1444 65° Northeast 500 575 35,000  Level Minneapolis Center
Wed 01:55:42 PM 43.2953 -98.9661 66° East 497 572 35,000  Level Minneapolis Center
Wed 01:56:44 PM 43.3511 -98.7933 66° East 496 571 35,000  Level Minneapolis Center
Wed 01:57:46 PM 43.4064 -98.6225 66° East 493 567 35,000  Level Minneapolis Center
Wed 01:58:48 PM 43.4628 -98.4522 65° Northeast 493 567 35,000  Level Minneapolis Center
Wed 01:59:50 PM 43.5275 -98.2472 66° East 492 566 35,000  Level Minneapolis Center
Wed 02:00:52 PM 43.5811 -98.0775 66° East 490 564 35,000  Level Minneapolis Center
Wed 02:01:54 PM 43.6347 -97.9078 66° East 484 557 35,000  Level Minneapolis Center
Wed 02:02:56 PM 43.6892 -97.7367 66° East 485 558 35,000  Level Minneapolis Center
Wed 02:03:57 PM 43.7428 -97.5642 67° East 486 559 35,000  Level Minneapolis Center
Wed 02:04:59 PM 43.7969 -97.3922 66° East 487 560 35,000  Level Minneapolis Center
Wed 02:06:01 PM 43.8597 -97.1867 67° East 487 560 35,000  Level Minneapolis Center
Wed 02:07:03 PM 43.9122 -97.0144 67° East 486 559 35,000  Level Minneapolis Center
Wed 02:08:05 PM 43.9642 -96.8436 67° East 486 559 35,000  Level Minneapolis Center
Wed 02:09:07 PM 44.0158 -96.6728 67° East 483 556 35,000  Level Minneapolis Center
Wed 02:10:09 PM 44.0669 -96.5003 68° East 483 556 35,000  Level Minneapolis Center
Wed 02:11:11 PM 44.1194 -96.3283 67° East 484 557 35,000  Level Minneapolis Center
Wed 02:12:13 PM 44.1781 -96.1289 68° East 489 563 35,000 -97 Level Minneapolis Center
Wed 02:13:15 PM 44.2308 -95.9489 68° East 505 581 34,800 -629 Descending Minneapolis Center
Wed 02:14:17 PM 44.2839 -95.7711 67° East 505 581 33,700 -1,024 Descending Minneapolis Center
Wed 02:15:18 PM 44.3367 -95.5911 68° East 505 581 32,700 -1,756 Descending Minneapolis Center
Wed 02:16:20 PM 44.3983 -95.3711 69° East 505 581 30,100 -3,435 Descending Minneapolis Center
Wed 02:17:22 PM 44.4508 -95.1894 68° East 505 581 25,600 -3,484 Descending Minneapolis Center
Wed 02:18:24 PM 44.4958 -95.0117 70° East 492 566 22,900 -2,710 Descending Minneapolis Center
Wed 02:19:26 PM 44.5369 -94.8417 71° East 469 540 20,000 -2,710 Descending Minneapolis Center
Wed 02:20:28 PM 44.5742 -94.6769 72° East 452 520 17,300 -2,710 Descending Minneapolis Center
Wed 02:21:30 PM 44.6125 -94.5106 72° East 434 499 14,400 -2,488 Descending Minneapolis Center
Wed 02:22:31 PM 44.6478 -94.3558 72° East 421 484 12,200 -1,512 Descending Minneapolis Center
Wed 02:23:33 PM 44.6797 -94.2175 72° East 372 428 11,300 -677 Descending Minneapolis Center
Wed 02:24:35 PM 44.7119 -94.0708 73° East 323 372 10,800 -726 Descending Minneapolis Center
Wed 02:25:37 PM 44.7367 -93.9644 72° East 292 336 9,800 -823 Descending Minneapolis Center
Wed 02:26:39 PM 44.7583 -93.8656 73° East 265 305 9,100 -823 Descending Minneapolis Center
Wed 02:27:41 PM 44.7842 -93.7744 68° East 254 292 8,100 -1,024 Descending Minneapolis Center
Wed 02:28:42 PM 44.8503 -93.7867 353° North 256 295 7,000 -537 Descending Minneapolis Center
Wed 02:29:44 PM 44.9086 -93.8303 332° Northwest 235 270 7,000  Level Minneapolis Center
Wed 02:30:46 PM 44.9719 -93.8581 343° North 235 270 7,000  Level Minneapolis Center
Wed 02:31:48 PM 45.0486 -93.8728 352° North 235 270 7,000  Level Minneapolis Center
Wed 02:32:50 PM 45.1142 -93.8553 11° North 238 274 7,000  Level Minneapolis Center
Wed 02:33:52 PM 45.1686 -93.8317 17° North 211 243 7,000  Level Minneapolis Center
Wed 02:34:53 PM 45.1403 -93.7928 136° Southeast 174 200 7,000  Level Minneapolis Center
Wed 02:35:55 PM 45.1039 -93.7361 132° Southeast 206 237 7,000  Level Minneapolis Center
Wed 02:36:57 PM 45.0719 -93.6622 121° Southeast 218 251 7,000 -145 Level Minneapolis Center
Wed 02:37:59 PM 45.0392 -93.5861 121° Southeast 190 219 6,700 -629 Descending Minneapolis Center
Wed 02:39:01 PM 45.0125 -93.5231 121° Southeast 187 215 5,700 -927 Descending Minneapolis Center
Wed 02:40:02 PM 44.9886 -93.4675 121° Southeast 170 196 4,800 -878 Descending Minneapolis Center
Wed 02:41:04 PM 44.9681 -93.4200 121° Southeast 146 168 3,900 -774 Descending Minneapolis Center
Wed 02:42:06 PM 44.9503 -93.3783 121° Southeast 129 148 3,200 -677 Descending Minneapolis Center
Wed 02:43:08 PM 44.9306 -93.3333 122° Southeast 129 148 2,500 -683 Descending Minneapolis Center
Wed 02:44:09 PM 44.9117 -93.2889 121° Southeast 131 151 1,800 -689 Descending Minneapolis Center

Login

Don't have an account? Register now (free) for customized features, flight alerts, and more!